createdAt,value
2022-08-01T00:00:03.589Z,976.97
2022-08-01T00:01:03.683Z,976.89
2022-08-01T00:02:04.583Z,976.92
2022-08-01T00:03:03.876Z,976.89
2022-08-01T00:04:03.842Z,976.80
2022-08-01T00:05:03.793Z,976.89
2022-08-01T00:06:03.755Z,976.83
2022-08-01T00:07:03.797Z,976.83
2022-08-01T00:08:03.799Z,976.75
2022-08-01T00:09:03.849Z,976.81
2022-08-01T00:10:04.089Z,976.86
2022-08-01T00:11:03.411Z,976.84
2022-08-01T00:12:03.134Z,976.78
2022-08-01T00:13:03.210Z,976.89
2022-08-01T00:14:03.206Z,976.78
2022-08-01T00:15:03.238Z,976.86
2022-08-01T00:16:03.289Z,976.86
2022-08-01T00:17:07.783Z,976.81
2022-08-01T00:18:03.392Z,976.78
2022-08-01T00:19:03.423Z,976.87
2022-08-01T00:20:03.530Z,976.89
2022-08-01T00:21:03.637Z,976.87
2022-08-01T00:22:04.049Z,976.84
2022-08-01T00:23:03.898Z,976.75
2022-08-01T00:24:03.635Z,976.87
2022-08-01T00:25:03.635Z,976.81
2022-08-01T00:26:03.745Z,976.78
2022-08-01T00:27:03.771Z,976.84
2022-08-01T00:28:04.571Z,976.87
2022-08-01T00:29:49.899Z,976.65
2022-08-01T00:30:14.759Z,976.73
2022-08-01T00:31:03.863Z,976.68
2022-08-01T00:32:04.424Z,976.71
2022-08-01T00:33:03.918Z,976.75
2022-08-01T00:34:03.876Z,976.68
2022-08-01T00:35:03.841Z,976.68
2022-08-01T00:36:03.917Z,976.68
2022-08-01T00:37:02.997Z,976.84
2022-08-01T00:38:02.979Z,976.84
2022-08-01T00:39:02.993Z,976.82
2022-08-01T00:40:02.986Z,976.76
2022-08-01T00:41:03.006Z,976.74
2022-08-01T00:42:03.651Z,976.79
2022-08-01T00:43:03.093Z,976.79
2022-08-01T00:44:03.457Z,976.74
2022-08-01T00:45:03.601Z,976.68
2022-08-01T00:46:03.548Z,976.74
2022-08-01T00:47:03.548Z,976.82
2022-08-01T00:48:03.513Z,976.72
2022-08-01T00:49:04.173Z,976.69
2022-08-01T00:50:03.578Z,976.76
2022-08-01T00:51:03.720Z,976.79
2022-08-01T00:52:04.548Z,976.63
2022-08-01T00:53:03.798Z,976.80
2022-08-01T00:54:03.929Z,976.72
2022-08-01T00:55:03.692Z,976.69
2022-08-01T00:56:03.682Z,976.77
2022-08-01T00:57:03.840Z,976.63
2022-08-01T00:58:06.876Z,976.69
2022-08-01T00:59:03.867Z,976.80
2022-08-01T01:00:03.804Z,976.74
2022-08-01T01:01:04.327Z,976.97
2022-08-01T01:02:15.527Z,976.83
2022-08-01T01:03:03.855Z,976.80
2022-08-01T01:04:08.853Z,976.83
2022-08-01T01:05:03.908Z,976.83
2022-08-01T01:06:02.989Z,976.80
2022-08-01T01:07:02.957Z,976.74
2022-08-01T01:08:03.007Z,976.83
2022-08-01T01:09:03.940Z,976.72
2022-08-01T01:10:03.095Z,976.74
2022-08-01T01:11:03.106Z,976.74
2022-08-01T01:12:03.694Z,976.70
2022-08-01T01:13:03.086Z,976.75
2022-08-01T01:14:03.115Z,976.64
2022-08-01T01:15:03.093Z,976.70
2022-08-01T01:16:03.704Z,976.61
2022-08-01T01:17:03.782Z,976.70
2022-08-01T01:18:03.689Z,976.53
2022-08-01T01:19:03.883Z,976.84
2022-08-01T01:20:03.796Z,976.81
2022-08-01T01:21:03.194Z,976.73
2022-08-01T01:22:03.741Z,976.78
2022-08-01T01:23:03.065Z,976.84
2022-08-01T01:24:03.133Z,976.61
2022-08-01T01:25:03.085Z,976.84
2022-08-01T01:26:03.342Z,976.78
2022-08-01T01:27:03.068Z,976.75
2022-08-01T01:28:02.973Z,976.78
2022-08-01T01:29:03.081Z,976.73
2022-08-01T01:30:03.132Z,976.73
2022-08-01T01:31:02.975Z,976.64
2022-08-01T01:32:04.645Z,976.73
2022-08-01T01:33:03.795Z,976.78
2022-08-01T01:34:03.848Z,976.73
2022-08-01T01:35:03.859Z,976.75
2022-08-01T01:36:11.500Z,976.75
2022-08-01T01:37:03.798Z,976.75
2022-08-01T01:38:03.807Z,976.78
2022-08-01T01:39:05.039Z,976.80
2022-08-01T01:40:03.083Z,976.80
2022-08-01T01:41:03.039Z,976.89
2022-08-01T01:42:03.637Z,976.73
2022-08-01T01:43:03.477Z,976.64
2022-08-01T01:44:03.576Z,976.55
2022-08-01T01:45:03.517Z,976.70
2022-08-01T01:46:03.597Z,976.70
2022-08-01T01:47:03.644Z,976.67
2022-08-01T01:48:03.636Z,976.74
2022-08-01T01:49:03.938Z,976.89
2022-08-01T01:50:03.688Z,976.72
2022-08-01T01:51:03.777Z,976.74
2022-08-01T01:52:04.386Z,976.69
2022-08-01T01:53:03.775Z,976.69
2022-08-01T01:54:03.768Z,976.72
2022-08-01T01:55:03.801Z,976.74
2022-08-01T01:56:03.904Z,976.77
2022-08-01T01:57:03.842Z,976.77
2022-08-01T01:58:03.819Z,976.69
2022-08-01T01:59:03.775Z,976.72
2022-08-01T02:00:03.770Z,976.77
2022-08-01T02:01:04.113Z,976.74
2022-08-01T02:02:09.198Z,976.72
2022-08-01T02:03:03.120Z,976.72
2022-08-01T02:04:03.099Z,976.74
2022-08-01T02:05:03.219Z,976.66
2022-08-01T02:06:03.236Z,976.85
2022-08-01T02:07:03.372Z,976.72
2022-08-01T02:08:03.310Z,976.77
2022-08-01T02:09:03.357Z,976.74
2022-08-01T02:10:03.398Z,976.66
2022-08-01T02:11:03.460Z,976.74
2022-08-01T02:12:09.403Z,976.69
2022-08-01T02:13:03.551Z,976.80
2022-08-01T02:14:03.676Z,976.72
2022-08-01T02:15:03.797Z,976.69
2022-08-01T02:16:03.780Z,976.63
2022-08-01T02:17:03.829Z,976.77
2022-08-01T02:18:03.829Z,976.74
2022-08-01T02:19:03.839Z,976.72
2022-08-01T02:20:03.804Z,976.77
2022-08-01T02:21:03.165Z,976.74
2022-08-01T02:22:03.686Z,976.74
2022-08-01T02:23:03.189Z,976.69
2022-08-01T02:24:06.374Z,976.72
2022-08-01T02:25:03.278Z,976.66
2022-08-01T02:26:11.630Z,976.74
2022-08-01T02:27:03.169Z,976.77
2022-08-01T02:28:03.240Z,976.72
2022-08-01T02:29:03.227Z,976.74
2022-08-01T02:30:03.351Z,976.64
2022-08-01T02:31:03.266Z,976.72
2022-08-01T02:32:04.084Z,976.67
2022-08-01T02:33:03.251Z,976.77
2022-08-01T02:34:03.361Z,976.61
2022-08-01T02:35:03.348Z,976.74
2022-08-01T02:36:33.359Z,976.70
2022-08-01T02:37:03.361Z,976.70
2022-08-01T02:38:03.576Z,976.74
2022-08-01T02:39:03.568Z,976.73
2022-08-01T02:40:03.578Z,976.73
2022-08-01T02:41:03.469Z,976.73
2022-08-01T02:42:04.555Z,976.75
2022-08-01T02:43:03.770Z,976.67
2022-08-01T02:44:03.848Z,976.73
2022-08-01T02:45:03.784Z,976.64
2022-08-01T02:46:03.785Z,976.73
2022-08-01T02:47:03.888Z,976.67
2022-08-01T02:48:03.666Z,976.84
2022-08-01T02:49:03.967Z,976.78
2022-08-01T02:50:03.758Z,976.75
2022-08-01T02:51:05.386Z,976.87
2022-08-01T02:52:04.370Z,976.75
2022-08-01T02:53:03.000Z,976.67
2022-08-01T02:54:02.967Z,976.81
2022-08-01T02:55:03.561Z,976.86
2022-08-01T02:56:03.226Z,976.75
2022-08-01T02:57:04.656Z,976.84
2022-08-01T02:58:03.339Z,976.70
2022-08-01T02:59:03.875Z,976.81
2022-08-01T03:00:03.441Z,976.75
2022-08-01T03:01:03.524Z,976.70
2022-08-01T03:02:04.178Z,976.67
2022-08-01T03:03:03.629Z,976.75
2022-08-01T03:04:03.560Z,976.84
2022-08-01T03:05:03.524Z,976.73
2022-08-01T03:06:03.650Z,976.70
2022-08-01T03:07:03.670Z,976.75
2022-08-01T03:08:04.172Z,976.73
2022-08-01T03:09:03.642Z,976.81
2022-08-01T03:10:03.670Z,976.84
2022-08-01T03:11:03.570Z,976.84
2022-08-01T03:12:04.464Z,976.98
2022-08-01T03:13:03.782Z,976.95
2022-08-01T03:14:03.923Z,976.89
2022-08-01T03:15:03.938Z,976.92
2022-08-01T03:16:02.950Z,976.95
2022-08-01T03:17:03.211Z,976.83
2022-08-01T03:18:03.090Z,976.95
2022-08-01T03:19:03.070Z,976.95
2022-08-01T03:20:03.210Z,976.89
2022-08-01T03:21:03.125Z,977.01
2022-08-01T03:22:03.827Z,976.95
2022-08-01T03:23:03.271Z,976.92
2022-08-01T03:24:03.290Z,977.01
2022-08-01T03:25:03.314Z,976.95
2022-08-01T03:26:03.351Z,976.95
2022-08-01T03:27:03.304Z,976.89
2022-08-01T03:28:03.240Z,976.89
2022-08-01T03:29:03.207Z,976.89
2022-08-01T03:30:03.323Z,976.89
2022-08-01T03:31:03.312Z,976.83
2022-08-01T03:32:03.936Z,976.89
2022-08-01T03:33:03.371Z,977.09
2022-08-01T03:34:06.211Z,976.86
2022-08-01T03:35:03.615Z,977.06
2022-08-01T03:36:03.590Z,976.95
2022-08-01T03:37:03.496Z,976.92
2022-08-01T03:38:16.664Z,977.00
2022-08-01T03:39:03.623Z,977.09
2022-08-01T03:40:03.551Z,976.83
2022-08-01T03:41:03.617Z,976.97
2022-08-01T03:42:03.556Z,976.89
2022-08-01T03:43:03.561Z,976.83
2022-08-01T03:44:03.618Z,977.00
2022-08-01T03:45:03.558Z,976.89
2022-08-01T03:46:03.033Z,977.00
2022-08-01T03:47:02.986Z,976.89
2022-08-01T03:48:03.893Z,976.97
2022-08-01T03:49:03.002Z,977.00
2022-08-01T03:50:04.157Z,976.89
2022-08-01T03:51:03.035Z,977.00
2022-08-01T03:52:03.827Z,976.89
2022-08-01T03:53:03.231Z,977.00
2022-08-01T03:54:03.187Z,977.00
2022-08-01T03:55:03.191Z,976.94
2022-08-01T03:56:03.279Z,976.92
2022-08-01T03:57:03.271Z,976.94
2022-08-01T03:58:09.805Z,977.03
2022-08-01T03:59:03.400Z,977.00
2022-08-01T04:00:03.520Z,976.85
2022-08-01T04:01:03.565Z,976.94
2022-08-01T04:02:04.002Z,976.88
2022-08-01T04:03:03.676Z,976.91
2022-08-01T04:04:03.745Z,977.00
2022-08-01T04:05:03.678Z,976.94
2022-08-01T04:06:03.739Z,976.97
2022-08-01T04:07:03.864Z,977.05
2022-08-01T04:08:03.847Z,977.02
2022-08-01T04:09:03.928Z,977.11
2022-08-01T04:10:03.870Z,977.08
2022-08-01T04:11:02.951Z,976.99
2022-08-01T04:12:12.828Z,976.99
2022-08-01T04:13:03.017Z,976.93
2022-08-01T04:14:09.590Z,976.96
2022-08-01T04:15:03.800Z,977.05
2022-08-01T04:16:02.979Z,976.99
2022-08-01T04:17:03.013Z,977.08
2022-08-01T04:18:03.169Z,977.02
2022-08-01T04:19:03.095Z,976.99
2022-08-01T04:20:03.136Z,976.99
2022-08-01T04:21:03.249Z,977.02
2022-08-01T04:22:03.765Z,977.10
2022-08-01T04:23:03.313Z,977.10
2022-08-01T04:24:03.277Z,977.10
2022-08-01T04:25:03.721Z,977.10
2022-08-01T04:26:03.503Z,977.01
2022-08-01T04:27:03.594Z,976.98
2022-08-01T04:28:03.502Z,976.95
2022-08-01T04:29:03.439Z,977.04
2022-08-01T04:30:03.452Z,977.16
2022-08-01T04:31:03.548Z,977.04
2022-08-01T04:32:04.283Z,977.13
2022-08-01T04:33:03.461Z,977.10
2022-08-01T04:34:03.516Z,977.07
2022-08-01T04:36:01.065Z,977.13
2022-08-01T04:36:05.456Z,977.21
2022-08-01T04:37:02.983Z,977.04
2022-08-01T04:38:03.084Z,977.06
2022-08-01T04:39:02.993Z,977.09
2022-08-01T04:40:03.022Z,977.18
2022-08-01T04:41:10.004Z,977.09
2022-08-01T04:42:03.685Z,977.12
2022-08-01T04:43:03.089Z,977.15
2022-08-01T04:44:03.146Z,977.18
2022-08-01T04:45:03.100Z,977.20
2022-08-01T04:46:03.379Z,977.12
2022-08-01T04:47:03.066Z,977.14
2022-08-01T04:48:03.204Z,977.20
2022-08-01T04:49:03.226Z,977.11
2022-08-01T04:50:03.193Z,977.17
2022-08-01T04:51:03.143Z,977.23
2022-08-01T04:52:03.953Z,977.17
2022-08-01T04:53:03.344Z,977.20
2022-08-01T04:54:03.322Z,977.17
2022-08-01T04:55:03.262Z,977.08
2022-08-01T04:56:03.267Z,977.05
2022-08-01T04:57:03.379Z,977.22
2022-08-01T04:58:03.635Z,977.08
2022-08-01T04:59:03.635Z,977.05
2022-08-01T05:00:03.533Z,977.13
2022-08-01T05:01:03.810Z,977.02
2022-08-01T05:02:04.110Z,977.10
2022-08-01T05:03:03.790Z,977.05
2022-08-01T05:04:03.858Z,976.96
2022-08-01T05:05:03.770Z,977.07
2022-08-01T05:06:03.759Z,977.01
2022-08-01T05:07:03.690Z,977.16
2022-08-01T05:08:03.843Z,977.13
2022-08-01T05:09:03.232Z,977.04
2022-08-01T05:10:05.975Z,977.07
2022-08-01T05:11:02.903Z,977.04
2022-08-01T05:12:03.534Z,977.07
2022-08-01T05:13:03.115Z,977.01
2022-08-01T05:14:03.618Z,977.00
2022-08-01T05:15:03.678Z,977.06
2022-08-01T05:16:03.747Z,976.97
2022-08-01T05:17:03.725Z,976.94
2022-08-01T05:18:03.669Z,976.97
2022-08-01T05:19:03.810Z,977.03
2022-08-01T05:20:03.813Z,977.03
2022-08-01T05:21:03.943Z,977.11
2022-08-01T05:22:04.655Z,976.94
2022-08-01T05:23:03.964Z,976.96
2022-08-01T05:24:05.473Z,976.99
2022-08-01T05:25:06.097Z,976.99
2022-08-01T05:26:02.939Z,976.96
2022-08-01T05:27:03.744Z,976.96
2022-08-01T05:28:03.787Z,977.02
2022-08-01T05:29:03.257Z,976.90
2022-08-01T05:30:03.303Z,976.84
2022-08-01T05:31:03.346Z,976.95
2022-08-01T05:32:03.994Z,977.01
2022-08-01T05:33:03.156Z,977.04
2022-08-01T05:34:04.409Z,976.95
2022-08-01T05:35:03.381Z,976.98
2022-08-01T05:36:03.363Z,976.92
2022-08-01T05:37:03.270Z,976.95
2022-08-01T05:38:03.836Z,977.09
2022-08-01T05:39:03.147Z,977.09
2022-08-01T05:40:03.020Z,976.97
2022-08-01T05:41:03.109Z,977.06
2022-08-01T05:42:03.917Z,977.06
2022-08-01T05:43:03.035Z,977.03
2022-08-01T05:44:03.115Z,977.00
2022-08-01T05:45:03.031Z,977.06
2022-08-01T05:46:03.101Z,976.97
2022-08-01T05:47:03.149Z,977.14
2022-08-01T05:48:03.188Z,977.02
2022-08-01T05:49:03.259Z,977.23
2022-08-01T05:50:03.172Z,977.02
2022-08-01T05:51:03.015Z,977.14
2022-08-01T05:52:04.275Z,977.08
2022-08-01T05:53:03.219Z,977.08
2022-08-01T05:54:03.206Z,977.11
2022-08-01T05:55:03.112Z,977.20
2022-08-01T05:56:03.242Z,977.08
2022-08-01T05:57:03.271Z,977.14
2022-08-01T05:58:03.183Z,977.11
2022-08-01T05:59:03.512Z,976.99
2022-08-01T06:00:03.690Z,977.11
2022-08-01T06:01:03.682Z,977.23
2022-08-01T06:02:04.523Z,977.02
2022-08-01T06:03:03.810Z,977.05
2022-08-01T06:04:03.732Z,977.02
2022-08-01T06:05:03.742Z,977.14
2022-08-01T06:06:03.708Z,977.22
2022-08-01T06:07:03.654Z,977.17
2022-08-01T06:08:03.599Z,977.20
2022-08-01T06:09:03.772Z,977.08
2022-08-01T06:10:03.710Z,977.08
2022-08-01T06:11:03.777Z,977.19
2022-08-01T06:12:04.487Z,977.25
2022-08-01T06:13:03.704Z,977.14
2022-08-01T06:14:03.779Z,977.25
2022-08-01T06:15:03.896Z,977.11
2022-08-01T06:16:03.821Z,977.22
2022-08-01T06:17:03.807Z,977.05
2022-08-01T06:18:02.920Z,977.13
2022-08-01T06:19:03.069Z,977.19
2022-08-01T06:20:03.059Z,977.22
2022-08-01T06:21:03.031Z,977.10
2022-08-01T06:22:03.714Z,977.28
2022-08-01T06:23:32.429Z,977.28
2022-08-01T06:24:03.149Z,977.22
2022-08-01T06:25:03.096Z,977.25
2022-08-01T06:26:03.215Z,977.19
2022-08-01T06:27:22.724Z,977.30
2022-08-01T06:28:03.090Z,977.27
2022-08-01T06:29:03.163Z,977.36
2022-08-01T06:30:03.123Z,977.36
2022-08-01T06:31:03.155Z,977.42
2022-08-01T06:32:03.828Z,977.39
2022-08-01T06:33:03.075Z,977.39
2022-08-01T06:34:03.115Z,977.33
2022-08-01T06:35:03.121Z,977.38
2022-08-01T06:36:03.088Z,977.33
2022-08-01T06:37:07.353Z,977.38
2022-08-01T06:38:03.114Z,977.47
2022-08-01T06:39:03.110Z,977.41
2022-08-01T06:40:03.120Z,977.44
2022-08-01T06:41:03.205Z,977.35
2022-08-01T06:42:03.996Z,977.29
2022-08-01T06:43:03.309Z,977.47
2022-08-01T06:44:03.278Z,977.52
2022-08-01T06:45:03.253Z,977.55
2022-08-01T06:46:03.186Z,977.44
2022-08-01T06:47:03.219Z,977.44
2022-08-01T06:48:03.180Z,977.44
2022-08-01T06:49:03.275Z,977.46
2022-08-01T06:50:03.098Z,977.38
2022-08-01T06:51:03.141Z,977.43
2022-08-01T06:52:03.536Z,977.40
2022-08-01T06:53:03.151Z,977.43
2022-08-01T06:54:03.294Z,977.49
2022-08-01T06:55:03.669Z,977.57
2022-08-01T06:56:03.663Z,977.46
2022-08-01T06:57:03.583Z,977.37
2022-08-01T06:58:03.790Z,977.43
2022-08-01T06:59:03.662Z,977.51
2022-08-01T07:00:03.663Z,977.51
2022-08-01T07:01:05.499Z,977.31
2022-08-01T07:02:04.825Z,977.45
2022-08-01T07:03:03.787Z,977.45
2022-08-01T07:04:03.820Z,977.42
2022-08-01T07:05:04.259Z,977.39
2022-08-01T07:06:03.819Z,977.39
2022-08-01T07:07:03.868Z,977.51
2022-08-01T07:08:03.805Z,977.48
2022-08-01T07:09:14.028Z,977.36
2022-08-01T07:10:03.006Z,977.47
2022-08-01T07:11:03.251Z,977.47
2022-08-01T07:12:03.575Z,977.47
2022-08-01T07:13:03.037Z,977.44
2022-08-01T07:14:03.100Z,977.58
2022-08-01T07:15:03.207Z,977.55
2022-08-01T07:16:03.219Z,977.47
2022-08-01T07:17:03.302Z,977.47
2022-08-01T07:18:03.529Z,977.49
2022-08-01T07:19:03.518Z,977.58
2022-08-01T07:20:03.414Z,977.46
2022-08-01T07:21:05.255Z,977.58
2022-08-01T07:22:05.193Z,977.52
2022-08-01T07:23:03.826Z,977.69
2022-08-01T07:24:14.208Z,977.58
2022-08-01T07:25:03.789Z,977.38
2022-08-01T07:26:03.826Z,977.69
2022-08-01T07:27:25.883Z,977.58
2022-08-01T07:28:03.863Z,977.49
2022-08-01T07:29:03.825Z,977.52
2022-08-01T07:30:03.861Z,977.72
2022-08-01T07:31:03.804Z,977.55
2022-08-01T07:32:04.501Z,977.58
2022-08-01T07:33:03.807Z,977.66
2022-08-01T07:34:03.811Z,977.69
2022-08-01T07:35:03.872Z,977.61
2022-08-01T07:36:03.908Z,977.61
2022-08-01T07:37:03.831Z,977.61
2022-08-01T07:38:03.778Z,977.71
2022-08-01T07:39:03.794Z,977.68
2022-08-01T07:40:03.876Z,977.68
2022-08-01T07:41:03.915Z,977.58
2022-08-01T07:42:08.515Z,977.61
2022-08-01T07:43:03.814Z,977.60
2022-08-01T07:44:05.182Z,977.83
2022-08-01T07:45:03.878Z,977.80
2022-08-01T07:46:03.898Z,977.86
2022-08-01T07:47:02.961Z,977.80
2022-08-01T07:48:08.968Z,977.80
2022-08-01T07:49:03.974Z,977.74
2022-08-01T07:50:03.870Z,977.83
2022-08-01T07:51:02.997Z,977.82
2022-08-01T07:52:14.096Z,977.82
2022-08-01T07:53:03.012Z,977.88
2022-08-01T07:54:02.993Z,977.91
2022-08-01T07:55:03.205Z,977.97
2022-08-01T07:56:03.135Z,977.88
2022-08-01T07:57:03.231Z,977.97
2022-08-01T07:58:03.216Z,977.85
2022-08-01T07:59:03.233Z,977.91
2022-08-01T08:00:03.275Z,978.08
2022-08-01T08:01:03.283Z,978.06
2022-08-01T08:02:03.783Z,978.09
2022-08-01T08:03:03.269Z,978.18
2022-08-01T08:04:03.320Z,978.00
2022-08-01T08:05:03.287Z,978.12
2022-08-01T08:06:03.272Z,978.01
2022-08-01T08:07:03.937Z,978.07
2022-08-01T08:08:03.236Z,978.07
2022-08-01T08:09:03.266Z,978.05
2022-08-01T08:10:03.207Z,977.94
2022-08-01T08:11:03.130Z,977.97
2022-08-01T08:12:03.691Z,977.91
2022-08-01T08:13:03.273Z,978.00
2022-08-01T08:14:03.126Z,977.95
2022-08-01T08:15:03.019Z,977.89
2022-08-01T08:16:02.981Z,978.01
2022-08-01T08:17:03.759Z,977.99
2022-08-01T08:18:03.389Z,977.87
2022-08-01T08:19:03.329Z,977.87
2022-08-01T08:20:03.271Z,977.85
2022-08-01T08:21:07.115Z,977.82
2022-08-01T08:22:03.928Z,977.82
2022-08-01T08:23:03.430Z,977.74
2022-08-01T08:24:03.579Z,977.80
2022-08-01T08:25:03.603Z,977.80
2022-08-01T08:26:03.542Z,977.68
2022-08-01T08:27:03.493Z,977.74
2022-08-01T08:28:04.749Z,977.68
2022-08-01T08:29:03.760Z,977.68
2022-08-01T08:30:03.609Z,977.68
2022-08-01T08:31:03.733Z,977.74
2022-08-01T08:32:04.541Z,977.83
2022-08-01T08:33:03.495Z,977.77
2022-08-01T08:34:03.611Z,977.60
2022-08-01T08:35:03.678Z,977.74
2022-08-01T08:36:03.131Z,977.71
2022-08-01T08:37:03.798Z,977.74
2022-08-01T08:38:03.915Z,977.74
2022-08-01T08:39:03.099Z,977.78
2022-08-01T08:40:03.041Z,977.66
2022-08-01T08:41:03.010Z,977.66
2022-08-01T08:42:03.095Z,977.81
2022-08-01T08:43:03.228Z,977.69
2022-08-01T08:44:02.976Z,977.72
2022-08-01T08:45:03.949Z,977.83
2022-08-01T08:46:03.931Z,977.69
2022-08-01T08:47:03.789Z,977.81
2022-08-01T08:48:03.797Z,977.69
2022-08-01T08:49:05.235Z,977.75
2022-08-01T08:50:03.896Z,977.72
2022-08-01T08:51:03.810Z,977.72
2022-08-01T08:52:04.420Z,977.66
2022-08-01T08:53:06.916Z,977.80
2022-08-01T08:54:03.813Z,977.83
2022-08-01T08:55:03.731Z,977.80
2022-08-01T08:56:03.795Z,977.86
2022-08-01T08:57:03.943Z,977.88
2022-08-01T08:58:02.910Z,977.73
2022-08-01T08:59:03.032Z,977.85
2022-08-01T09:00:03.107Z,977.72
2022-08-01T09:01:03.022Z,977.69
2022-08-01T09:02:03.025Z,977.61
2022-08-01T09:03:03.245Z,977.77
2022-08-01T09:04:03.087Z,977.62
2022-08-01T09:05:03.150Z,977.47
2022-08-01T09:06:03.119Z,977.58
2022-08-01T09:07:03.145Z,977.57
2022-08-01T09:08:03.200Z,977.65
2022-08-01T09:09:03.326Z,977.51
2022-08-01T09:10:03.221Z,977.73
2022-08-01T09:11:03.201Z,977.72
2022-08-01T09:12:03.347Z,977.72
2022-08-01T09:13:03.833Z,977.74
2022-08-01T09:14:02.960Z,977.82
2022-08-01T09:15:02.919Z,977.76
2022-08-01T09:16:02.933Z,977.90
2022-08-01T09:17:03.912Z,977.90
2022-08-01T09:18:03.029Z,977.89
2022-08-01T09:19:02.913Z,977.92
2022-08-01T09:20:03.102Z,978.03
2022-08-01T09:21:03.108Z,978.00
2022-08-01T09:22:03.830Z,978.06
2022-08-01T09:23:03.194Z,978.06
2022-08-01T09:24:03.299Z,978.06
2022-08-01T09:25:03.322Z,978.11
2022-08-01T09:26:03.414Z,978.08
2022-08-01T09:27:03.819Z,978.32
2022-08-01T09:28:03.091Z,978.29
2022-08-01T09:29:03.200Z,978.14
2022-08-01T09:30:03.127Z,978.22
2022-08-01T09:31:03.248Z,978.31
2022-08-01T09:32:05.610Z,978.25
2022-08-01T09:33:21.688Z,978.33
2022-08-01T09:34:03.498Z,978.33
2022-08-01T09:35:03.438Z,978.39
2022-08-01T09:36:03.373Z,978.36
2022-08-01T09:37:03.505Z,978.27
2022-08-01T09:38:03.525Z,978.39
2022-08-01T09:39:08.589Z,978.46
2022-08-01T09:40:03.383Z,978.42
2022-08-01T09:41:02.922Z,978.49
2022-08-01T09:42:03.051Z,978.46
2022-08-01T09:43:03.496Z,978.46
2022-08-01T09:44:03.199Z,978.46
2022-08-01T09:45:07.669Z,978.35
2022-08-01T09:46:04.064Z,978.49
2022-08-01T09:47:08.085Z,978.49
2022-08-01T09:48:03.245Z,978.54
2022-08-01T09:49:10.590Z,978.43
2022-08-01T09:50:11.543Z,978.54
2022-08-01T09:51:10.044Z,978.51
2022-08-01T09:52:03.465Z,978.45
2022-08-01T09:53:03.492Z,978.42
2022-08-01T09:54:04.041Z,978.42
2022-08-01T09:55:03.740Z,978.64
2022-08-01T09:56:03.672Z,978.61
2022-08-01T09:57:04.118Z,978.46
2022-08-01T09:58:03.950Z,978.58
2022-08-01T09:59:03.622Z,978.58
2022-08-01T10:00:03.729Z,978.57
2022-08-01T10:01:04.246Z,978.49
2022-08-01T10:02:04.380Z,978.54
2022-08-01T10:03:10.761Z,978.66
2022-08-01T10:04:05.938Z,978.66
2022-08-01T10:05:08.883Z,978.81
2022-08-01T10:06:03.030Z,978.60
2022-08-01T10:07:02.929Z,978.63
2022-08-01T10:08:08.274Z,978.78
2022-08-01T10:09:05.264Z,978.78
2022-08-01T10:10:03.875Z,978.78
2022-08-01T10:11:03.892Z,978.75
2022-08-01T10:12:03.912Z,978.78
2022-08-01T10:13:04.437Z,978.87
2022-08-01T10:14:03.877Z,978.84
2022-08-01T10:15:03.356Z,978.72
2022-08-01T10:16:02.974Z,978.75
2022-08-01T10:17:05.956Z,978.75
2022-08-01T10:18:03.113Z,978.72
2022-08-01T10:19:03.540Z,978.64
2022-08-01T10:20:03.720Z,978.84
2022-08-01T10:21:11.003Z,978.87
2022-08-01T10:22:03.143Z,978.73
2022-08-01T10:23:06.808Z,978.81
2022-08-01T10:24:03.782Z,978.84
2022-08-01T10:25:04.013Z,978.70
2022-08-01T10:26:04.547Z,978.84
2022-08-01T10:27:09.338Z,978.81
2022-08-01T10:28:03.768Z,978.90
2022-08-01T10:29:03.830Z,978.87
2022-08-01T10:30:21.575Z,978.90
2022-08-01T10:31:05.748Z,979.00
2022-08-01T10:32:06.052Z,979.03
2022-08-01T10:33:06.078Z,979.00
2022-08-01T10:34:04.075Z,979.03
2022-08-01T10:35:07.315Z,979.06
2022-08-01T10:36:08.830Z,979.03
2022-08-01T10:37:05.913Z,979.03
2022-08-01T10:38:06.290Z,978.98
2022-08-01T10:39:03.555Z,978.98
2022-08-01T10:40:30.939Z,978.95
2022-08-01T10:41:08.702Z,978.98
2022-08-01T10:42:07.927Z,978.92
2022-08-01T10:43:03.390Z,979.04
2022-08-01T10:44:03.334Z,979.01
2022-08-01T10:45:05.107Z,979.16
2022-08-01T10:46:03.383Z,978.93
2022-08-01T10:47:04.155Z,979.10
2022-08-01T10:48:03.454Z,979.07
2022-08-01T10:49:03.801Z,979.07
2022-08-01T10:50:04.808Z,979.04
2022-08-01T10:51:03.683Z,978.98
2022-08-01T10:52:05.217Z,979.10
2022-08-01T10:53:23.480Z,979.01
2022-08-01T10:54:03.552Z,978.95
2022-08-01T10:55:04.265Z,979.04
2022-08-01T10:56:03.764Z,979.07
2022-08-01T10:57:04.572Z,979.04
2022-08-01T10:58:03.765Z,979.12
2022-08-01T10:59:11.986Z,979.04
2022-08-01T11:00:03.757Z,979.01
2022-08-01T11:01:03.934Z,979.00
2022-08-01T11:02:04.136Z,979.06
2022-08-01T11:03:02.983Z,979.00
2022-08-01T11:04:04.279Z,979.03
2022-08-01T11:05:04.706Z,979.05
2022-08-01T11:06:02.941Z,979.11
2022-08-01T11:07:02.922Z,978.91
2022-08-01T11:08:02.957Z,979.08
2022-08-01T11:09:06.187Z,978.93
2022-08-01T11:10:03.219Z,979.08
2022-08-01T11:11:03.004Z,979.13
2022-08-01T11:12:06.601Z,979.04
2022-08-01T11:13:04.766Z,978.98
2022-08-01T11:14:03.581Z,979.01
2022-08-01T11:15:03.868Z,979.01
2022-08-01T11:16:17.915Z,979.13
2022-08-01T11:17:03.461Z,979.18
2022-08-01T11:18:04.803Z,979.27
2022-08-01T11:19:03.586Z,979.24
2022-08-01T11:20:04.186Z,979.09
2022-08-01T11:22:01.101Z,979.24
2022-08-01T11:22:02.283Z,979.21
2022-08-01T11:23:03.878Z,979.27
2022-08-01T11:24:03.044Z,979.30
2022-08-01T11:25:03.065Z,979.27
2022-08-01T11:26:10.399Z,979.30
2022-08-01T11:27:03.736Z,979.21
2022-08-01T11:28:03.015Z,979.44
2022-08-01T11:29:21.822Z,979.32
2022-08-01T11:30:08.101Z,979.33
2022-08-01T11:31:03.015Z,979.35
2022-08-01T11:32:03.186Z,979.41
2022-08-01T11:33:12.058Z,979.36
2022-08-01T11:34:03.933Z,979.30
2022-08-01T11:35:07.186Z,979.39
2022-08-01T11:36:03.174Z,979.45
2022-08-01T11:37:03.629Z,979.42
2022-08-01T11:38:03.206Z,979.45
2022-08-01T11:39:14.068Z,979.39
2022-08-01T11:40:03.317Z,979.45
2022-08-01T11:41:04.674Z,979.39
2022-08-01T11:42:03.428Z,979.39
2022-08-01T11:43:04.737Z,979.27
2022-08-01T11:44:03.392Z,979.44
2022-08-01T11:45:03.369Z,979.35
2022-08-01T11:46:03.391Z,979.35
2022-08-01T11:47:10.517Z,979.41
2022-08-01T11:48:03.449Z,979.24
2022-08-01T11:49:06.290Z,979.26
2022-08-01T11:50:03.408Z,979.26
2022-08-01T11:51:03.260Z,979.32
2022-08-01T11:52:04.617Z,979.34
2022-08-01T11:53:03.745Z,979.31
2022-08-01T11:54:03.453Z,979.28
2022-08-01T11:55:03.279Z,979.16
2022-08-01T11:56:03.330Z,979.30
2022-08-01T11:57:04.009Z,979.39
2022-08-01T11:58:03.795Z,979.33
2022-08-01T11:59:04.162Z,979.39
2022-08-01T12:00:08.312Z,979.47
2022-08-01T12:01:03.433Z,979.35
2022-08-01T12:02:03.721Z,979.38
2022-08-01T12:03:05.233Z,979.38
2022-08-01T12:04:03.528Z,979.44
2022-08-01T12:05:05.308Z,979.50
2022-08-01T12:06:03.685Z,979.49
2022-08-01T12:07:04.187Z,979.49
2022-08-01T12:08:04.763Z,979.41
2022-08-01T12:09:03.606Z,979.43
2022-08-01T12:10:03.714Z,979.49
2022-08-01T12:11:07.347Z,979.43
2022-08-01T12:12:03.681Z,979.64
2022-08-01T12:13:03.764Z,979.66
2022-08-01T12:14:03.090Z,979.61
2022-08-01T12:15:03.129Z,979.49
2022-08-01T12:16:03.561Z,979.55
2022-08-01T12:17:03.141Z,979.57
2022-08-01T12:18:03.127Z,979.46
2022-08-01T12:19:02.989Z,979.45
2022-08-01T12:20:03.091Z,979.51
2022-08-01T12:21:03.708Z,979.45
2022-08-01T12:22:03.754Z,979.42
2022-08-01T12:23:03.928Z,979.54
2022-08-01T12:24:03.835Z,979.51
2022-08-01T12:25:03.863Z,979.63
2022-08-01T12:26:02.913Z,979.54
2022-08-01T12:27:03.159Z,979.72
2022-08-01T12:28:03.096Z,979.78